< Typhoon 197225 1972 Season Typhoon 197227 >
Typhoon 197226 (OLGA)
General InformationTrack Information on Google Maps || Disaster Info.ResourceGoogle EarthGE AnimationAtom FeedGeoJSON
Detalied Best Track (Time Zone = UTC)
Year Month Day Hour Lat. Long. Pressure (hPa) Wind (kt) Class Image Chart
1972 10 21 06 8.0 177.0 1004 0 2 -- Chart
1972 10 21 12 8.0 176.2 1002 0 2 -- Chart
1972 10 21 18 7.9 175.3 990 0 9 -- Chart
1972 10 22 00 8.1 174.4 990 0 9 -- Chart
1972 10 22 06 8.1 174.2 990 0 9 -- Chart
1972 10 22 12 8.4 173.8 990 0 9 -- Chart
1972 10 22 18 9.0 173.2 996 0 9 -- Chart
1972 10 23 00 9.4 172.1 996 0 9 -- Chart
1972 10 23 06 9.6 171.5 996 0 9 -- Chart
1972 10 23 12 10.1 170.5 996 0 9 -- Chart
1972 10 23 18 10.5 169.5 996 0 9 -- Chart
1972 10 24 00 10.9 168.4 996 0 9 -- Chart
1972 10 24 06 12.1 167.3 994 0 9 -- Chart
1972 10 24 12 12.0 165.5 994 0 9 -- Chart
1972 10 24 18 11.8 163.8 994 0 9 -- Chart
1972 10 25 00 12.6 162.4 992 0 9 -- Chart
1972 10 25 06 13.6 161.3 985 0 9 -- Chart
1972 10 25 12 13.6 159.2 985 0 9 -- Chart
1972 10 25 18 13.6 158.1 980 0 9 -- Chart
1972 10 26 00 13.8 156.8 975 0 9 -- Chart
1972 10 26 06 14.2 154.6 975 0 9 -- Chart
1972 10 26 12 15.1 153.3 970 0 9 -- Chart
1972 10 26 18 15.8 151.3 965 0 9 -- Chart
1972 10 27 00 16.5 149.6 955 0 9 -- Chart
1972 10 27 06 17.6 147.2 945 0 9 -- Chart
1972 10 27 12 18.3 146.4 940 0 9 -- Chart
1972 10 27 18 19.4 145.2 940 0 9 -- Chart
1972 10 28 00 20.4 144.2 940 0 9 -- Chart
1972 10 28 06 21.7 143.6 945 0 9 -- Chart
1972 10 28 12 23.3 143.2 950 0 9 -- Chart
1972 10 28 18 24.8 143.2 950 0 9 -- Chart
1972 10 29 00 27.2 143.8 955 0 9 -- Chart
1972 10 29 06 30.2 145.4 965 0 9 -- Chart
1972 10 29 12 33.4 147.7 975 0 9 -- Chart
1972 10 29 18 37.0 151.0 980 0 9 -- Chart
1972 10 30 00 42.0 156.0 980 0 6 -- Chart
1972 10 30 06 44.5 160.5 972 0 6 -- Chart
1972 10 30 12 46.5 164.0 968 0 6 -- Chart
1972 10 30 18 48.0 168.0 964 0 6 -- Chart
1972 10 31 00 48.0 171.9 960 0 6 -- Chart
1972 10 31 06 48.0 177.0 964 0 6 -- Chart
Japan Meteorological Agency Best Track Data | Correction Date : 1989-06-01
< Typhoon 197225 1972 Season Typhoon 197227 >

Help